sensor_id;sensor_type;location;lat;lon;timestamp;P1;durP1;ratioP1;P2;durP2;ratioP2
21305;SDS011;10812;51.838;5.838;2023-05-19T00:00:05;7.97;;;4.07;;
21305;SDS011;10812;51.838;5.838;2023-05-19T00:02:34;5.63;;;3.90;;
21305;SDS011;10812;51.838;5.838;2023-05-19T00:05:05;7.47;;;3.77;;
21305;SDS011;10812;51.838;5.838;2023-05-19T00:07:37;7.37;;;3.73;;
21305;SDS011;10812;51.838;5.838;2023-05-19T00:10:06;5.87;;;4.07;;
21305;SDS011;10812;51.838;5.838;2023-05-19T00:12:35;5.10;;;3.87;;
21305;SDS011;10812;51.838;5.838;2023-05-19T00:15:05;6.27;;;3.70;;
21305;SDS011;10812;51.838;5.838;2023-05-19T00:17:35;12.43;;;4.47;;
21305;SDS011;10812;51.838;5.838;2023-05-19T00:20:04;8.07;;;3.53;;
21305;SDS011;10812;51.838;5.838;2023-05-19T00:22:33;13.47;;;4.13;;
21305;SDS011;10812;51.838;5.838;2023-05-19T00:25:04;7.87;;;4.50;;
21305;SDS011;10812;51.838;5.838;2023-05-19T00:27:33;5.40;;;4.37;;
21305;SDS011;10812;51.838;5.838;2023-05-19T00:30:01;5.60;;;4.00;;
21305;SDS011;10812;51.838;5.838;2023-05-19T00:32:29;11.17;;;4.37;;
21305;SDS011;10812;51.838;5.838;2023-05-19T00:34:57;9.13;;;4.47;;
21305;SDS011;10812;51.838;5.838;2023-05-19T00:37:26;9.80;;;4.63;;
21305;SDS011;10812;51.838;5.838;2023-05-19T00:39:54;5.87;;;4.63;;
21305;SDS011;10812;51.838;5.838;2023-05-19T00:42:24;10.47;;;4.93;;
21305;SDS011;10812;51.838;5.838;2023-05-19T00:44:53;6.87;;;4.67;;
21305;SDS011;10812;51.838;5.838;2023-05-19T00:47:21;6.13;;;4.53;;
21305;SDS011;10812;51.838;5.838;2023-05-19T00:49:49;8.27;;;4.50;;
21305;SDS011;10812;51.838;5.838;2023-05-19T00:52:17;8.10;;;5.20;;
21305;SDS011;10812;51.838;5.838;2023-05-19T00:54:46;5.97;;;4.13;;
21305;SDS011;10812;51.838;5.838;2023-05-19T01:12:40;9.53;;;5.00;;
21305;SDS011;10812;51.838;5.838;2023-05-19T01:15:09;6.60;;;4.30;;
21305;SDS011;10812;51.838;5.838;2023-05-19T01:17:39;9.23;;;5.10;;
21305;SDS011;10812;51.838;5.838;2023-05-19T01:20:13;8.33;;;4.53;;
21305;SDS011;10812;51.838;5.838;2023-05-19T01:23:02;6.37;;;4.63;;
21305;SDS011;10812;51.838;5.838;2023-05-19T01:25:50;6.93;;;4.30;;
21305;SDS011;10812;51.838;5.838;2023-05-19T01:28:38;12.00;;;4.43;;
21305;SDS011;10812;51.838;5.838;2023-05-19T01:31:33;8.70;;;4.27;;
21305;SDS011;10812;51.838;5.838;2023-05-19T01:34:04;9.67;;;5.20;;
21305;SDS011;10812;51.838;5.838;2023-05-19T01:36:34;9.73;;;4.73;;
21305;SDS011;10812;51.838;5.838;2023-05-19T01:39:03;8.50;;;5.10;;
21305;SDS011;10812;51.838;5.838;2023-05-19T01:41:32;6.67;;;4.80;;
21305;SDS011;10812;51.838;5.838;2023-05-19T01:44:01;7.43;;;4.90;;
21305;SDS011;10812;51.838;5.838;2023-05-19T01:46:29;9.27;;;5.33;;
21305;SDS011;10812;51.838;5.838;2023-05-19T01:48:59;10.13;;;4.90;;
21305;SDS011;10812;51.838;5.838;2023-05-19T01:51:28;10.80;;;5.00;;
21305;SDS011;10812;51.838;5.838;2023-05-19T01:53:56;9.27;;;5.50;;
21305;SDS011;10812;51.838;5.838;2023-05-19T01:56:25;11.93;;;5.63;;
21305;SDS011;10812;51.838;5.838;2023-05-19T01:59:07;9.07;;;4.83;;
21305;SDS011;10812;51.838;5.838;2023-05-19T02:01:47;8.17;;;5.20;;
21305;SDS011;10812;51.838;5.838;2023-05-19T02:04:24;10.90;;;5.37;;
21305;SDS011;10812;51.838;5.838;2023-05-19T02:07:07;10.50;;;5.40;;
21305;SDS011;10812;51.838;5.838;2023-05-19T02:09:41;9.40;;;5.30;;
21305;SDS011;10812;51.838;5.838;2023-05-19T02:12:18;11.30;;;5.07;;
21305;SDS011;10812;51.838;5.838;2023-05-19T02:14:54;9.33;;;5.33;;
21305;SDS011;10812;51.838;5.838;2023-05-19T02:17:29;11.47;;;4.93;;
21305;SDS011;10812;51.838;5.838;2023-05-19T02:20:03;11.93;;;6.03;;
21305;SDS011;10812;51.838;5.838;2023-05-19T02:22:32;12.07;;;6.03;;
21305;SDS011;10812;51.838;5.838;2023-05-19T02:25:00;10.93;;;6.20;;
21305;SDS011;10812;51.838;5.838;2023-05-19T02:27:28;8.43;;;4.93;;
21305;SDS011;10812;51.838;5.838;2023-05-19T02:29:56;7.60;;;5.60;;
21305;SDS011;10812;51.838;5.838;2023-05-19T02:32:24;8.60;;;5.10;;
21305;SDS011;10812;51.838;5.838;2023-05-19T02:34:53;12.03;;;5.57;;
21305;SDS011;10812;51.838;5.838;2023-05-19T02:37:23;9.53;;;6.03;;
21305;SDS011;10812;51.838;5.838;2023-05-19T02:39:53;11.57;;;5.97;;
21305;SDS011;10812;51.838;5.838;2023-05-19T02:42:22;14.87;;;5.30;;
21305;SDS011;10812;51.838;5.838;2023-05-19T02:44:50;7.40;;;5.27;;
21305;SDS011;10812;51.838;5.838;2023-05-19T02:47:19;7.63;;;5.47;;
21305;SDS011;10812;51.838;5.838;2023-05-19T02:49:47;8.97;;;5.17;;
21305;SDS011;10812;51.838;5.838;2023-05-19T03:08:20;14.13;;;5.20;;
21305;SDS011;10812;51.838;5.838;2023-05-19T03:10:49;12.73;;;6.13;;
21305;SDS011;10812;51.838;5.838;2023-05-19T03:13:17;10.30;;;6.20;;
21305;SDS011;10812;51.838;5.838;2023-05-19T03:15:45;10.57;;;6.43;;
21305;SDS011;10812;51.838;5.838;2023-05-19T03:28:54;12.47;;;6.23;;
21305;SDS011;10812;51.838;5.838;2023-05-19T03:31:22;11.07;;;6.23;;
21305;SDS011;10812;51.838;5.838;2023-05-19T03:33:52;11.90;;;7.03;;
21305;SDS011;10812;51.838;5.838;2023-05-19T03:36:20;12.77;;;6.83;;
21305;SDS011;10812;51.838;5.838;2023-05-19T03:38:48;10.23;;;6.67;;
21305;SDS011;10812;51.838;5.838;2023-05-19T03:41:16;12.10;;;6.23;;
21305;SDS011;10812;51.838;5.838;2023-05-19T03:43:46;12.13;;;6.37;;
21305;SDS011;10812;51.838;5.838;2023-05-19T03:46:14;12.93;;;7.17;;
21305;SDS011;10812;51.838;5.838;2023-05-19T03:48:42;11.80;;;6.00;;
21305;SDS011;10812;51.838;5.838;2023-05-19T03:51:10;12.60;;;6.43;;
21305;SDS011;10812;51.838;5.838;2023-05-19T03:53:38;8.30;;;6.17;;
21305;SDS011;10812;51.838;5.838;2023-05-19T03:56:08;12.43;;;6.50;;
21305;SDS011;10812;51.838;5.838;2023-05-19T03:58:39;15.77;;;6.80;;
21305;SDS011;10812;51.838;5.838;2023-05-19T04:01:10;11.10;;;7.10;;
21305;SDS011;10812;51.838;5.838;2023-05-19T04:11:40;9.43;;;6.07;;
21305;SDS011;10812;51.838;5.838;2023-05-19T04:14:08;10.87;;;6.43;;
21305;SDS011;10812;51.838;5.838;2023-05-19T04:16:37;11.27;;;6.57;;
21305;SDS011;10812;51.838;5.838;2023-05-19T04:19:06;11.93;;;5.93;;
21305;SDS011;10812;51.838;5.838;2023-05-19T04:21:35;13.47;;;6.67;;
21305;SDS011;10812;51.838;5.838;2023-05-19T04:24:03;12.10;;;6.97;;
21305;SDS011;10812;51.838;5.838;2023-05-19T04:26:32;12.53;;;6.90;;
21305;SDS011;10812;51.838;5.838;2023-05-19T04:29:01;10.10;;;6.23;;
21305;SDS011;10812;51.838;5.838;2023-05-19T04:31:30;13.23;;;6.67;;
21305;SDS011;10812;51.838;5.838;2023-05-19T04:34:01;12.43;;;6.73;;
21305;SDS011;10812;51.838;5.838;2023-05-19T04:36:29;13.47;;;6.97;;
21305;SDS011;10812;51.838;5.838;2023-05-19T04:38:59;9.87;;;6.83;;
21305;SDS011;10812;51.838;5.838;2023-05-19T04:41:32;14.90;;;7.73;;
21305;SDS011;10812;51.838;5.838;2023-05-19T04:44:00;13.67;;;6.97;;
21305;SDS011;10812;51.838;5.838;2023-05-19T04:46:29;10.83;;;6.77;;
21305;SDS011;10812;51.838;5.838;2023-05-19T04:48:57;12.17;;;6.57;;
21305;SDS011;10812;51.838;5.838;2023-05-19T04:51:27;12.23;;;6.73;;
21305;SDS011;10812;51.838;5.838;2023-05-19T04:53:56;16.30;;;6.67;;
21305;SDS011;10812;51.838;5.838;2023-05-19T04:56:25;13.57;;;6.13;;
21305;SDS011;10812;51.838;5.838;2023-05-19T04:58:54;17.63;;;6.50;;
21305;SDS011;10812;51.838;5.838;2023-05-19T05:01:22;12.40;;;6.07;;
21305;SDS011;10812;51.838;5.838;2023-05-19T05:03:51;9.53;;;6.53;;
21305;SDS011;10812;51.838;5.838;2023-05-19T05:06:21;11.93;;;6.67;;
21305;SDS011;10812;51.838;5.838;2023-05-19T05:08:51;10.53;;;5.97;;
21305;SDS011;10812;51.838;5.838;2023-05-19T05:11:19;11.20;;;6.23;;
21305;SDS011;10812;51.838;5.838;2023-05-19T05:13:48;13.40;;;6.83;;
21305;SDS011;10812;51.838;5.838;2023-05-19T05:22:58;8.77;;;5.77;;
21305;SDS011;10812;51.838;5.838;2023-05-19T05:25:29;10.07;;;5.30;;
21305;SDS011;10812;51.838;5.838;2023-05-19T05:27:58;11.00;;;5.57;;
21305;SDS011;10812;51.838;5.838;2023-05-19T05:30:30;11.37;;;6.50;;
21305;SDS011;10812;51.838;5.838;2023-05-19T05:33:00;8.87;;;6.10;;
21305;SDS011;10812;51.838;5.838;2023-05-19T05:35:29;9.80;;;6.23;;
21305;SDS011;10812;51.838;5.838;2023-05-19T05:37:57;10.43;;;6.07;;
21305;SDS011;10812;51.838;5.838;2023-05-19T05:40:26;8.97;;;6.00;;
21305;SDS011;10812;51.838;5.838;2023-05-19T05:42:56;8.40;;;5.87;;
21305;SDS011;10812;51.838;5.838;2023-05-19T05:45:25;12.67;;;6.13;;
21305;SDS011;10812;51.838;5.838;2023-05-19T05:47:53;9.00;;;5.70;;
21305;SDS011;10812;51.838;5.838;2023-05-19T05:50:22;10.93;;;6.17;;
21305;SDS011;10812;51.838;5.838;2023-05-19T05:52:50;10.93;;;5.77;;
21305;SDS011;10812;51.838;5.838;2023-05-19T05:55:22;11.50;;;6.20;;
21305;SDS011;10812;51.838;5.838;2023-05-19T05:57:52;11.50;;;5.87;;
21305;SDS011;10812;51.838;5.838;2023-05-19T06:00:22;13.03;;;5.93;;
21305;SDS011;10812;51.838;5.838;2023-05-19T06:02:53;10.83;;;6.50;;
21305;SDS011;10812;51.838;5.838;2023-05-19T06:05:22;9.60;;;5.27;;
21305;SDS011;10812;51.838;5.838;2023-05-19T06:07:51;5.47;;;3.93;;
21305;SDS011;10812;51.838;5.838;2023-05-19T06:10:19;6.57;;;3.77;;
21305;SDS011;10812;51.838;5.838;2023-05-19T06:12:47;5.30;;;3.73;;
21305;SDS011;10812;51.838;5.838;2023-05-19T06:15:17;7.57;;;4.20;;
21305;SDS011;10812;51.838;5.838;2023-05-19T06:17:45;11.07;;;4.67;;
21305;SDS011;10812;51.838;5.838;2023-05-19T06:20:13;8.70;;;4.40;;
21305;SDS011;10812;51.838;5.838;2023-05-19T06:22:41;6.67;;;4.30;;
21305;SDS011;10812;51.838;5.838;2023-05-19T06:25:09;10.23;;;3.97;;
21305;SDS011;10812;51.838;5.838;2023-05-19T06:27:37;7.32;;;3.60;;
21305;SDS011;10812;51.838;5.838;2023-05-19T06:30:06;8.63;;;4.05;;
21305;SDS011;10812;51.838;5.838;2023-05-19T06:32:36;7.43;;;3.88;;
21305;SDS011;10812;51.838;5.838;2023-05-19T06:35:05;8.27;;;4.15;;
21305;SDS011;10812;51.838;5.838;2023-05-19T06:37:33;5.15;;;3.60;;
21305;SDS011;10812;51.838;5.838;2023-05-19T06:40:01;7.97;;;3.45;;
21305;SDS011;10812;51.838;5.838;2023-05-19T06:42:30;6.25;;;3.28;;
21305;SDS011;10812;51.838;5.838;2023-05-19T06:44:59;6.07;;;3.58;;
21305;SDS011;10812;51.838;5.838;2023-05-19T06:47:27;7.20;;;3.92;;
21305;SDS011;10812;51.838;5.838;2023-05-19T06:49:56;9.02;;;4.22;;
21305;SDS011;10812;51.838;5.838;2023-05-19T06:52:24;7.15;;;3.92;;
21305;SDS011;10812;51.838;5.838;2023-05-19T06:54:52;6.10;;;3.30;;
21305;SDS011;10812;51.838;5.838;2023-05-19T06:57:21;7.57;;;4.25;;
21305;SDS011;10812;51.838;5.838;2023-05-19T06:59:49;3.50;;;3.03;;
21305;SDS011;10812;51.838;5.838;2023-05-19T07:02:17;8.35;;;3.75;;
21305;SDS011;10812;51.838;5.838;2023-05-19T07:04:45;4.15;;;3.20;;
21305;SDS011;10812;51.838;5.838;2023-05-19T07:07:15;4.80;;;3.17;;
21305;SDS011;10812;51.838;5.838;2023-05-19T07:09:43;8.00;;;4.18;;
21305;SDS011;10812;51.838;5.838;2023-05-19T07:12:11;5.63;;;3.28;;
21305;SDS011;10812;51.838;5.838;2023-05-19T07:14:39;5.35;;;3.45;;
21305;SDS011;10812;51.838;5.838;2023-05-19T07:17:07;6.95;;;3.92;;
21305;SDS011;10812;51.838;5.838;2023-05-19T07:19:36;4.53;;;3.85;;
21305;SDS011;10812;51.838;5.838;2023-05-19T07:22:04;6.70;;;3.58;;
21305;SDS011;10812;51.838;5.838;2023-05-19T07:24:33;7.60;;;3.38;;
21305;SDS011;10812;51.838;5.838;2023-05-19T07:27:01;7.95;;;3.78;;
21305;SDS011;10812;51.838;5.838;2023-05-19T07:29:30;8.25;;;4.00;;
21305;SDS011;10812;51.838;5.838;2023-05-19T07:31:58;8.30;;;3.95;;
21305;SDS011;10812;51.838;5.838;2023-05-19T07:34:26;5.63;;;3.65;;
21305;SDS011;10812;51.838;5.838;2023-05-19T07:36:54;5.38;;;3.58;;
21305;SDS011;10812;51.838;5.838;2023-05-19T07:39:22;7.78;;;3.80;;
21305;SDS011;10812;51.838;5.838;2023-05-19T07:41:56;6.60;;;3.50;;
21305;SDS011;10812;51.838;5.838;2023-05-19T07:44:24;6.25;;;3.45;;
21305;SDS011;10812;51.838;5.838;2023-05-19T07:46:53;7.97;;;3.88;;
21305;SDS011;10812;51.838;5.838;2023-05-19T07:49:21;6.05;;;3.20;;
21305;SDS011;10812;51.838;5.838;2023-05-19T07:51:49;5.38;;;3.28;;
21305;SDS011;10812;51.838;5.838;2023-05-19T07:54:18;3.80;;;3.20;;
21305;SDS011;10812;51.838;5.838;2023-05-19T07:56:46;6.82;;;3.28;;
21305;SDS011;10812;51.838;5.838;2023-05-19T08:10:39;5.10;;;3.50;;
21305;SDS011;10812;51.838;5.838;2023-05-19T08:13:07;4.57;;;3.38;;
21305;SDS011;10812;51.838;5.838;2023-05-19T08:15:35;6.13;;;3.15;;
21305;SDS011;10812;51.838;5.838;2023-05-19T08:18:03;6.35;;;3.40;;
21305;SDS011;10812;51.838;5.838;2023-05-19T08:20:32;7.03;;;3.60;;
21305;SDS011;10812;51.838;5.838;2023-05-19T08:23:00;6.25;;;3.72;;
21305;SDS011;10812;51.838;5.838;2023-05-19T08:25:29;4.47;;;2.53;;
21305;SDS011;10812;51.838;5.838;2023-05-19T08:27:58;7.07;;;3.55;;
21305;SDS011;10812;51.838;5.838;2023-05-19T08:30:26;5.68;;;3.30;;
21305;SDS011;10812;51.838;5.838;2023-05-19T08:32:55;8.35;;;3.70;;
21305;SDS011;10812;51.838;5.838;2023-05-19T08:35:23;7.88;;;3.42;;
21305;SDS011;10812;51.838;5.838;2023-05-19T08:37:51;5.80;;;3.28;;
21305;SDS011;10812;51.838;5.838;2023-05-19T08:40:19;6.43;;;3.20;;
21305;SDS011;10812;51.838;5.838;2023-05-19T08:42:49;8.77;;;3.70;;
21305;SDS011;10812;51.838;5.838;2023-05-19T08:45:18;6.05;;;3.50;;
21305;SDS011;10812;51.838;5.838;2023-05-19T08:47:46;8.00;;;3.65;;
21305;SDS011;10812;51.838;5.838;2023-05-19T08:50:20;5.57;;;3.22;;
21305;SDS011;10812;51.838;5.838;2023-05-19T08:52:55;4.80;;;3.40;;
21305;SDS011;10812;51.838;5.838;2023-05-19T08:55:30;5.05;;;3.50;;
21305;SDS011;10812;51.838;5.838;2023-05-19T08:58:03;4.57;;;2.53;;
21305;SDS011;10812;51.838;5.838;2023-05-19T09:00:33;7.03;;;2.80;;
21305;SDS011;10812;51.838;5.838;2023-05-19T09:03:02;8.68;;;2.97;;
21305;SDS011;10812;51.838;5.838;2023-05-19T09:05:43;5.90;;;2.50;;
21305;SDS011;10812;51.838;5.838;2023-05-19T09:08:12;6.95;;;2.75;;
21305;SDS011;10812;51.838;5.838;2023-05-19T09:10:41;5.18;;;2.35;;
21305;SDS011;10812;51.838;5.838;2023-05-19T09:13:09;4.47;;;2.50;;
21305;SDS011;10812;51.838;5.838;2023-05-19T09:15:39;4.97;;;1.95;;
21305;SDS011;10812;51.838;5.838;2023-05-19T09:18:10;5.50;;;2.10;;
21305;SDS011;10812;51.838;5.838;2023-05-19T09:20:41;3.80;;;1.77;;
21305;SDS011;10812;51.838;5.838;2023-05-19T09:23:13;4.90;;;1.95;;
21305;SDS011;10812;51.838;5.838;2023-05-19T09:25:46;5.20;;;1.73;;
21305;SDS011;10812;51.838;5.838;2023-05-19T09:28:21;5.68;;;2.15;;
21305;SDS011;10812;51.838;5.838;2023-05-19T09:30:58;5.22;;;2.30;;
21305;SDS011;10812;51.838;5.838;2023-05-19T09:33:27;4.53;;;1.77;;
21305;SDS011;10812;51.838;5.838;2023-05-19T09:35:56;4.85;;;1.95;;
21305;SDS011;10812;51.838;5.838;2023-05-19T09:38:24;10.27;;;2.90;;
21305;SDS011;10812;51.838;5.838;2023-05-19T09:40:54;5.53;;;1.67;;
21305;SDS011;10812;51.838;5.838;2023-05-19T09:43:23;2.45;;;1.70;;
21305;SDS011;10812;51.838;5.838;2023-05-19T09:45:54;5.88;;;2.13;;
21305;SDS011;10812;51.838;5.838;2023-05-19T09:48:27;3.97;;;1.70;;
21305;SDS011;10812;51.838;5.838;2023-05-19T09:50:55;6.82;;;2.08;;
21305;SDS011;10812;51.838;5.838;2023-05-19T09:53:24;4.85;;;2.20;;
21305;SDS011;10812;51.838;5.838;2023-05-19T09:55:54;4.35;;;1.60;;
21305;SDS011;10812;51.838;5.838;2023-05-19T09:58:24;3.78;;;1.60;;
21305;SDS011;10812;51.838;5.838;2023-05-19T10:00:53;4.28;;;1.90;;
21305;SDS011;10812;51.838;5.838;2023-05-19T10:03:24;5.13;;;1.70;;
21305;SDS011;10812;51.838;5.838;2023-05-19T10:05:52;6.03;;;2.03;;
21305;SDS011;10812;51.838;5.838;2023-05-19T10:08:21;5.63;;;1.50;;
21305;SDS011;10812;51.838;5.838;2023-05-19T10:10:51;4.65;;;1.90;;
21305;SDS011;10812;51.838;5.838;2023-05-19T10:13:20;3.97;;;1.50;;
21305;SDS011;10812;51.838;5.838;2023-05-19T10:15:49;4.15;;;1.75;;
21305;SDS011;10812;51.838;5.838;2023-05-19T10:18:26;3.67;;;1.77;;
21305;SDS011;10812;51.838;5.838;2023-05-19T10:20:55;4.20;;;1.27;;
21305;SDS011;10812;51.838;5.838;2023-05-19T10:23:24;4.97;;;1.85;;
21305;SDS011;10812;51.838;5.838;2023-05-19T10:25:54;3.60;;;1.40;;
21305;SDS011;10812;51.838;5.838;2023-05-19T10:28:30;4.35;;;2.33;;
21305;SDS011;10812;51.838;5.838;2023-05-19T10:31:03;3.70;;;1.52;;
21305;SDS011;10812;51.838;5.838;2023-05-19T10:33:40;5.15;;;1.60;;
21305;SDS011;10812;51.838;5.838;2023-05-19T10:36:26;5.32;;;2.10;;
21305;SDS011;10812;51.838;5.838;2023-05-19T10:39:14;4.13;;;1.50;;
21305;SDS011;10812;51.838;5.838;2023-05-19T10:41:45;2.78;;;1.60;;
21305;SDS011;10812;51.838;5.838;2023-05-19T10:44:22;4.55;;;1.90;;
21305;SDS011;10812;51.838;5.838;2023-05-19T10:47:01;6.03;;;1.92;;
21305;SDS011;10812;51.838;5.838;2023-05-19T10:49:34;3.15;;;1.83;;
21305;SDS011;10812;51.838;5.838;2023-05-19T10:52:03;4.10;;;1.80;;
21305;SDS011;10812;51.838;5.838;2023-05-19T10:54:45;4.20;;;1.67;;
21305;SDS011;10812;51.838;5.838;2023-05-19T10:57:13;5.35;;;1.52;;
21305;SDS011;10812;51.838;5.838;2023-05-19T10:59:42;4.07;;;1.75;;
21305;SDS011;10812;51.838;5.838;2023-05-19T11:05:07;5.72;;;2.08;;
21305;SDS011;10812;51.838;5.838;2023-05-19T11:07:36;5.90;;;2.35;;
21305;SDS011;10812;51.838;5.838;2023-05-19T11:10:07;3.13;;;2.03;;
21305;SDS011;10812;51.838;5.838;2023-05-19T11:12:39;4.65;;;2.20;;
21305;SDS011;10812;51.838;5.838;2023-05-19T11:15:09;5.75;;;1.80;;
21305;SDS011;10812;51.838;5.838;2023-05-19T11:17:38;4.75;;;1.90;;
21305;SDS011;10812;51.838;5.838;2023-05-19T11:20:18;4.78;;;2.25;;
21305;SDS011;10812;51.838;5.838;2023-05-19T11:23:04;2.78;;;1.73;;
21305;SDS011;10812;51.838;5.838;2023-05-19T11:25:43;4.05;;;1.73;;
21305;SDS011;10812;51.838;5.838;2023-05-19T11:28:14;4.40;;;2.10;;
21305;SDS011;10812;51.838;5.838;2023-05-19T11:30:45;5.88;;;2.15;;
21305;SDS011;10812;51.838;5.838;2023-05-19T11:33:16;4.88;;;1.90;;
21305;SDS011;10812;51.838;5.838;2023-05-19T11:35:47;5.32;;;1.92;;
21305;SDS011;10812;51.838;5.838;2023-05-19T11:38:17;3.95;;;1.70;;
21305;SDS011;10812;51.838;5.838;2023-05-19T11:40:46;3.90;;;1.75;;
21305;SDS011;10812;51.838;5.838;2023-05-19T11:43:15;4.68;;;1.85;;
21305;SDS011;10812;51.838;5.838;2023-05-19T11:45:43;5.10;;;1.80;;
21305;SDS011;10812;51.838;5.838;2023-05-19T11:48:12;4.97;;;1.90;;
21305;SDS011;10812;51.838;5.838;2023-05-19T11:50:41;4.78;;;1.70;;
21305;SDS011;10812;51.838;5.838;2023-05-19T11:53:11;4.82;;;1.88;;
21305;SDS011;10812;51.838;5.838;2023-05-19T11:55:42;5.15;;;1.90;;
21305;SDS011;10812;51.838;5.838;2023-05-19T11:58:13;5.22;;;2.15;;
21305;SDS011;10812;51.838;5.838;2023-05-19T12:00:42;4.88;;;2.50;;
21305;SDS011;10812;51.838;5.838;2023-05-19T12:03:13;7.30;;;1.88;;
21305;SDS011;10812;51.838;5.838;2023-05-19T12:05:43;4.93;;;1.70;;
21305;SDS011;10812;51.838;5.838;2023-05-19T12:08:14;4.38;;;1.52;;
21305;SDS011;10812;51.838;5.838;2023-05-19T12:10:44;3.08;;;1.75;;
21305;SDS011;10812;51.838;5.838;2023-05-19T12:13:15;3.97;;;1.60;;
21305;SDS011;10812;51.838;5.838;2023-05-19T12:15:43;5.88;;;1.88;;
21305;SDS011;10812;51.838;5.838;2023-05-19T12:18:12;5.28;;;1.98;;
21305;SDS011;10812;51.838;5.838;2023-05-19T12:20:40;3.45;;;1.70;;
21305;SDS011;10812;51.838;5.838;2023-05-19T12:23:09;5.53;;;2.83;;
21305;SDS011;10812;51.838;5.838;2023-05-19T12:25:39;5.97;;;2.25;;
21305;SDS011;10812;51.838;5.838;2023-05-19T12:28:08;5.60;;;1.80;;
21305;SDS011;10812;51.838;5.838;2023-05-19T12:30:36;3.65;;;1.83;;
21305;SDS011;10812;51.838;5.838;2023-05-19T12:33:04;4.50;;;1.58;;
21305;SDS011;10812;51.838;5.838;2023-05-19T12:35:36;7.18;;;2.13;;
21305;SDS011;10812;51.838;5.838;2023-05-19T12:38:04;4.47;;;2.00;;
21305;SDS011;10812;51.838;5.838;2023-05-19T12:40:33;4.68;;;1.75;;
21305;SDS011;10812;51.838;5.838;2023-05-19T12:43:04;8.32;;;1.80;;
21305;SDS011;10812;51.838;5.838;2023-05-19T12:45:35;5.50;;;2.00;;
21305;SDS011;10812;51.838;5.838;2023-05-19T12:48:04;5.88;;;2.20;;
21305;SDS011;10812;51.838;5.838;2023-05-19T12:50:37;3.80;;;1.80;;
21305;SDS011;10812;51.838;5.838;2023-05-19T12:53:07;4.28;;;1.92;;
21305;SDS011;10812;51.838;5.838;2023-05-19T12:55:37;5.05;;;1.85;;
21305;SDS011;10812;51.838;5.838;2023-05-19T12:58:11;3.92;;;1.80;;
21305;SDS011;10812;51.838;5.838;2023-05-19T13:00:39;3.42;;;1.55;;
21305;SDS011;10812;51.838;5.838;2023-05-19T13:03:13;6.63;;;2.40;;
21305;SDS011;10812;51.838;5.838;2023-05-19T13:05:43;2.78;;;1.75;;
21305;SDS011;10812;51.838;5.838;2023-05-19T13:08:13;4.70;;;2.00;;
21305;SDS011;10812;51.838;5.838;2023-05-19T13:10:42;5.13;;;1.80;;
21305;SDS011;10812;51.838;5.838;2023-05-19T13:13:12;5.78;;;2.40;;
21305;SDS011;10812;51.838;5.838;2023-05-19T13:15:41;4.10;;;1.83;;
21305;SDS011;10812;51.838;5.838;2023-05-19T13:18:11;4.05;;;1.98;;
21305;SDS011;10812;51.838;5.838;2023-05-19T13:20:41;4.72;;;2.13;;
21305;SDS011;10812;51.838;5.838;2023-05-19T13:23:10;4.63;;;1.88;;
21305;SDS011;10812;51.838;5.838;2023-05-19T13:25:39;3.78;;;1.40;;
21305;SDS011;10812;51.838;5.838;2023-05-19T13:28:08;3.92;;;1.83;;
21305;SDS011;10812;51.838;5.838;2023-05-19T13:30:38;5.50;;;2.22;;
21305;SDS011;10812;51.838;5.838;2023-05-19T13:33:07;6.38;;;1.92;;
21305;SDS011;10812;51.838;5.838;2023-05-19T13:35:36;3.42;;;1.73;;
21305;SDS011;10812;51.838;5.838;2023-05-19T13:38:05;6.80;;;2.35;;
21305;SDS011;10812;51.838;5.838;2023-05-19T13:40:35;6.45;;;2.38;;
21305;SDS011;10812;51.838;5.838;2023-05-19T13:43:03;4.55;;;1.70;;
21305;SDS011;10812;51.838;5.838;2023-05-19T13:45:32;4.60;;;1.67;;
21305;SDS011;10812;51.838;5.838;2023-05-19T13:48:02;3.38;;;1.67;;
21305;SDS011;10812;51.838;5.838;2023-05-19T13:50:32;5.55;;;1.92;;
21305;SDS011;10812;51.838;5.838;2023-05-19T13:53:01;7.43;;;1.90;;
21305;SDS011;10812;51.838;5.838;2023-05-19T13:55:29;3.60;;;1.80;;
21305;SDS011;10812;51.838;5.838;2023-05-19T13:57:57;5.15;;;1.70;;
21305;SDS011;10812;51.838;5.838;2023-05-19T14:00:25;5.35;;;1.75;;
21305;SDS011;10812;51.838;5.838;2023-05-19T14:02:53;4.47;;;2.08;;
21305;SDS011;10812;51.838;5.838;2023-05-19T14:05:23;4.95;;;1.90;;
21305;SDS011;10812;51.838;5.838;2023-05-19T14:07:53;3.70;;;1.95;;
21305;SDS011;10812;51.838;5.838;2023-05-19T14:10:21;8.65;;;2.00;;
21305;SDS011;10812;51.838;5.838;2023-05-19T14:12:50;3.15;;;1.70;;
21305;SDS011;10812;51.838;5.838;2023-05-19T14:15:23;3.78;;;2.03;;
21305;SDS011;10812;51.838;5.838;2023-05-19T14:17:52;4.57;;;1.90;;
21305;SDS011;10812;51.838;5.838;2023-05-19T14:20:20;4.57;;;1.90;;
21305;SDS011;10812;51.838;5.838;2023-05-19T14:22:50;3.50;;;2.10;;
21305;SDS011;10812;51.838;5.838;2023-05-19T14:25:18;6.78;;;1.70;;
21305;SDS011;10812;51.838;5.838;2023-05-19T14:27:46;4.53;;;1.73;;
21305;SDS011;10812;51.838;5.838;2023-05-19T14:30:14;3.80;;;2.28;;
21305;SDS011;10812;51.838;5.838;2023-05-19T14:32:42;5.10;;;1.98;;
21305;SDS011;10812;51.838;5.838;2023-05-19T14:35:10;4.63;;;2.22;;
21305;SDS011;10812;51.838;5.838;2023-05-19T14:37:38;6.43;;;2.13;;
21305;SDS011;10812;51.838;5.838;2023-05-19T14:40:08;5.60;;;1.83;;
21305;SDS011;10812;51.838;5.838;2023-05-19T14:42:37;3.28;;;1.58;;
21305;SDS011;10812;51.838;5.838;2023-05-19T15:00:05;5.68;;;2.00;;
21305;SDS011;10812;51.838;5.838;2023-05-19T15:02:35;5.60;;;1.85;;
21305;SDS011;10812;51.838;5.838;2023-05-19T15:05:04;5.10;;;1.70;;
21305;SDS011;10812;51.838;5.838;2023-05-19T15:07:32;3.70;;;1.63;;
21305;SDS011;10812;51.838;5.838;2023-05-19T15:10:00;2.78;;;1.90;;
21305;SDS011;10812;51.838;5.838;2023-05-19T15:12:29;3.45;;;1.58;;
21305;SDS011;10812;51.838;5.838;2023-05-19T15:14:57;3.97;;;1.80;;
21305;SDS011;10812;51.838;5.838;2023-05-19T15:17:27;3.50;;;1.58;;
21305;SDS011;10812;51.838;5.838;2023-05-19T15:19:55;4.88;;;1.90;;
21305;SDS011;10812;51.838;5.838;2023-05-19T15:22:23;3.83;;;1.48;;
21305;SDS011;10812;51.838;5.838;2023-05-19T15:24:52;2.75;;;1.60;;
21305;SDS011;10812;51.838;5.838;2023-05-19T15:27:21;3.95;;;1.88;;
21305;SDS011;10812;51.838;5.838;2023-05-19T15:29:49;4.70;;;2.13;;
21305;SDS011;10812;51.838;5.838;2023-05-19T15:32:17;5.53;;;1.88;;
21305;SDS011;10812;51.838;5.838;2023-05-19T15:34:47;4.00;;;1.73;;
21305;SDS011;10812;51.838;5.838;2023-05-19T15:37:15;3.20;;;2.00;;
21305;SDS011;10812;51.838;5.838;2023-05-19T15:39:43;4.57;;;1.77;;
21305;SDS011;10812;51.838;5.838;2023-05-19T15:42:11;4.45;;;2.20;;
21305;SDS011;10812;51.838;5.838;2023-05-19T15:44:39;4.55;;;1.90;;
21305;SDS011;10812;51.838;5.838;2023-05-19T15:47:07;3.17;;;1.73;;
21305;SDS011;10812;51.838;5.838;2023-05-19T15:49:36;2.58;;;1.90;;
21305;SDS011;10812;51.838;5.838;2023-05-19T15:52:05;4.03;;;1.92;;
21305;SDS011;10812;51.838;5.838;2023-05-19T15:54:33;4.95;;;2.22;;
21305;SDS011;10812;51.838;5.838;2023-05-19T15:57:02;4.03;;;2.08;;
21305;SDS011;10812;51.838;5.838;2023-05-19T15:59:30;4.18;;;1.90;;
21305;SDS011;10812;51.838;5.838;2023-05-19T16:01:58;6.32;;;2.42;;
21305;SDS011;10812;51.838;5.838;2023-05-19T16:04:26;3.80;;;1.80;;
21305;SDS011;10812;51.838;5.838;2023-05-19T16:06:55;5.95;;;1.90;;
21305;SDS011;10812;51.838;5.838;2023-05-19T16:09:24;3.38;;;1.80;;
21305;SDS011;10812;51.838;5.838;2023-05-19T16:11:52;3.35;;;1.85;;
21305;SDS011;10812;51.838;5.838;2023-05-19T16:14:20;5.28;;;1.77;;
21305;SDS011;10812;51.838;5.838;2023-05-19T16:16:49;4.10;;;1.70;;
21305;SDS011;10812;51.838;5.838;2023-05-19T16:19:18;2.88;;;1.85;;
21305;SDS011;10812;51.838;5.838;2023-05-19T16:21:46;2.53;;;1.85;;
21305;SDS011;10812;51.838;5.838;2023-05-19T16:24:14;2.75;;;1.67;;
21305;SDS011;10812;51.838;5.838;2023-05-19T16:26:44;3.80;;;1.85;;